createdAt,value
2023-10-31T00:00:57.836Z,106.7995
2023-10-31T00:06:09.822Z,106.5385
2023-10-31T00:11:21.978Z,106.0225
2023-10-31T00:16:34.187Z,105.2503
2023-10-31T00:21:46.545Z,104.246
2023-10-31T00:26:58.513Z,103.7529
2023-10-31T00:32:10.663Z,103.7634
2023-10-31T00:37:22.821Z,103.2076
2023-10-31T00:42:34.840Z,101.6175
2023-10-31T00:47:46.870Z,100.6742
2023-10-31T00:52:59.001Z,99.88799
2023-10-31T00:58:11.006Z,99.5045
2023-10-31T01:03:23.134Z,98.97122
2023-10-31T01:08:35.197Z,98.18737
2023-10-31T01:13:47.323Z,97.58501
2023-10-31T01:18:59.332Z,97.14246
2023-10-31T01:24:11.339Z,96.65734
2023-10-31T01:29:23.298Z,96.83277
2023-10-31T01:34:35.382Z,97.50291
2023-10-31T01:39:47.685Z,99.86559
2023-10-31T01:44:59.797Z,101.9512
2023-10-31T01:50:11.806Z,103.6433
2023-10-31T01:55:23.782Z,104.5115
2023-10-31T02:00:35.746Z,104.748
2023-10-31T02:05:47.770Z,104.9267
2023-10-31T02:10:59.784Z,104.8918
2023-10-31T02:16:12.022Z,104.3151
2023-10-31T02:21:24.133Z,103.6699
2023-10-31T02:26:36.182Z,103.3663
2023-10-31T02:26:48.175Z,103.3587
2023-10-31T02:32:00.275Z,103.3675
2023-10-31T02:37:12.412Z,102.8896
2023-10-31T02:42:24.521Z,102.8591
2023-10-31T02:47:36.747Z,103.1567
2023-10-31T02:52:48.762Z,103.604
2023-10-31T02:58:00.736Z,103.8361
2023-10-31T03:03:12.881Z,104.0622
2023-10-31T03:08:25.147Z,104.2365
2023-10-31T03:13:37.271Z,103.9999
2023-10-31T03:18:49.268Z,103.6534
2023-10-31T03:24:01.436Z,103.4715
2023-10-31T03:29:13.423Z,103.2145
2023-10-31T03:34:25.390Z,102.9149
2023-10-31T03:39:37.498Z,103.0133
2023-10-31T03:44:49.589Z,103.063
2023-10-31T03:50:01.681Z,102.9968
2023-10-31T03:55:13.790Z,103.3256
2023-10-31T04:00:26.012Z,103.4914
2023-10-31T04:05:38.022Z,103.546
2023-10-31T04:10:50.011Z,104.1106
2023-10-31T04:16:01.982Z,104.2801
2023-10-31T04:21:14.068Z,104.2965
2023-10-31T04:26:28.581Z,104.4383
2023-10-31T04:31:44.170Z,104.4989
2023-10-31T04:36:56.790Z,104.584
2023-10-31T04:42:08.985Z,104.59
2023-10-31T04:47:21.130Z,104.7928
2023-10-31T04:52:33.202Z,104.9723
2023-10-31T04:57:45.341Z,105.1048
2023-10-31T05:02:57.502Z,105.1365
2023-10-31T05:08:10.048Z,105.075
2023-10-31T05:13:22.135Z,104.7542
2023-10-31T05:18:34.089Z,104.4116
2023-10-31T05:23:46.169Z,103.9683
2023-10-31T05:28:58.141Z,103.5065
2023-10-31T05:34:10.774Z,103.2904
2023-10-31T05:39:22.766Z,103.5173
2023-10-31T05:44:34.865Z,104.0999
2023-10-31T05:49:46.852Z,104.7087
2023-10-31T05:49:58.952Z,104.6934
2023-10-31T05:55:11.052Z,105.2166
2023-10-31T06:00:23.189Z,105.3142
2023-10-31T06:05:38.385Z,105.0335
2023-10-31T06:10:50.500Z,104.76
2023-10-31T06:16:02.588Z,104.9327
2023-10-31T06:21:14.824Z,104.8187
2023-10-31T06:26:26.987Z,104.8231
2023-10-31T06:31:39.159Z,104.7669
2023-10-31T06:36:51.247Z,104.9548
2023-10-31T06:42:03.246Z,105.2833
2023-10-31T06:47:15.452Z,105.362
2023-10-31T06:52:27.434Z,105.721
2023-10-31T07:02:59.788Z,105.4131
2023-10-31T07:08:11.996Z,105.4842
2023-10-31T07:13:24.172Z,105.0337
2023-10-31T07:18:36.149Z,104.847
2023-10-31T07:23:48.109Z,104.6985
2023-10-31T07:29:00.236Z,104.715
2023-10-31T07:34:12.492Z,104.3974
2023-10-31T07:39:24.472Z,103.7562
2023-10-31T07:44:36.440Z,103.0631
2023-10-31T07:49:48.932Z,102.2541
2023-10-31T07:55:01.028Z,101.7807
2023-10-31T08:00:13.105Z,100.9395
2023-10-31T08:05:25.248Z,99.88784
2023-10-31T08:10:37.384Z,99.18277
2023-10-31T08:16:01.718Z,97.40636
2023-10-31T08:21:13.778Z,97.60197
2023-10-31T08:26:25.824Z,95.96129
2023-10-31T08:31:37.800Z,94.39249
2023-10-31T08:36:50.277Z,92.56548
2023-10-31T08:42:02.767Z,90.75975
2023-10-31T08:47:14.759Z,90.20566
2023-10-31T08:52:26.739Z,89.83867
2023-10-31T08:57:38.892Z,89.17896
2023-10-31T09:02:51.115Z,87.81734
2023-10-31T09:08:03.241Z,86.44047
2023-10-31T09:13:15.254Z,86.33411
2023-10-31T09:18:27.352Z,84.36978
2023-10-31T09:23:39.305Z,84.29151
2023-10-31T09:28:51.395Z,82.35167
2023-10-31T09:34:03.437Z,82.40269
2023-10-31T09:39:15.647Z,81.46188
2023-10-31T09:44:27.634Z,82.86133
2023-10-31T09:49:40.377Z,80.21278
2023-10-31T09:54:52.347Z,79.57596
2023-10-31T10:00:04.310Z,77.94088
2023-10-31T10:05:16.334Z,77.37469
2023-10-31T10:10:28.290Z,76.64467
2023-10-31T10:15:40.247Z,77.98022
2023-10-31T10:26:12.470Z,77.71642
2023-10-31T10:31:24.686Z,77.55178
2023-10-31T10:36:36.648Z,79.72299
2023-10-31T10:41:48.637Z,78.47581
2023-10-31T10:47:00.662Z,76.20869
2023-10-31T10:52:12.626Z,76.27979
2023-10-31T10:57:25.248Z,75.95458
2023-10-31T11:02:37.352Z,75.49806
2023-10-31T11:07:49.730Z,71.26338
2023-10-31T11:13:01.790Z,71.14333
2023-10-31T11:18:13.822Z,71.60395
2023-10-31T11:23:25.864Z,71.10846
2023-10-31T11:28:38.131Z,69.14371
2023-10-31T11:33:50.092Z,67.72983
2023-10-31T11:39:02.055Z,68.52453
2023-10-31T11:44:14.071Z,67.77363
2023-10-31T11:49:26.040Z,68.44258
2023-10-31T11:54:38.084Z,67.04957
2023-10-31T11:59:50.684Z,68.9537
2023-10-31T12:05:02.921Z,69.89129
2023-10-31T12:10:14.923Z,68.59066
2023-10-31T12:15:27.516Z,72.40697
2023-10-31T12:20:39.592Z,70.85617
2023-10-31T12:25:51.696Z,70.84813
2023-10-31T12:31:03.923Z,70.4309
2023-10-31T12:36:15.902Z,69.91449
2023-10-31T12:41:27.945Z,69.75505
2023-10-31T12:46:40.370Z,70.82877
2023-10-31T12:51:52.479Z,76.39299
2023-10-31T12:57:04.636Z,76.10707
2023-10-31T13:02:17.116Z,76.87443
2023-10-31T13:07:29.138Z,75.2598
2023-10-31T13:12:41.227Z,75.68102
2023-10-31T13:17:53.218Z,74.70446
2023-10-31T13:23:05.390Z,74.7097
2023-10-31T13:28:17.558Z,72.05306
2023-10-31T13:33:29.640Z,73.47015
2023-10-31T13:38:41.596Z,71.72712
2023-10-31T13:43:53.710Z,67.98077
2023-10-31T13:49:05.734Z,68.555
2023-10-31T13:54:17.702Z,67.11185
2023-10-31T13:59:33.439Z,68.11171
2023-10-31T14:04:45.682Z,69.4043
2023-10-31T14:09:57.789Z,69.14449
2023-10-31T14:15:09.758Z,69.40025
2023-10-31T14:20:22.337Z,69.26853
2023-10-31T14:25:34.336Z,69.24601
2023-10-31T14:30:46.549Z,68.30313
2023-10-31T14:35:58.568Z,69.56074
2023-10-31T14:41:10.586Z,70.54851
2023-10-31T14:46:23.132Z,71.81577
2023-10-31T14:51:35.259Z,71.97838
2023-10-31T14:56:47.330Z,73.22234
2023-10-31T15:01:59.543Z,73.41946
2023-10-31T15:07:11.765Z,74.8393
2023-10-31T15:12:23.741Z,77.08032
2023-10-31T15:17:35.951Z,77.79022
2023-10-31T15:22:47.962Z,78.70612
2023-10-31T15:27:59.926Z,78.89602
2023-10-31T15:33:11.962Z,81.87907
2023-10-31T15:38:24.310Z,83.64944
2023-10-31T15:43:36.310Z,85.83624
2023-10-31T15:48:48.489Z,86.52085
2023-10-31T15:54:00.478Z,85.95384
2023-10-31T15:59:12.468Z,86.48868
2023-10-31T16:04:24.526Z,88.45743
2023-10-31T16:09:37.148Z,88.76458
2023-10-31T16:14:49.238Z,89.20303
2023-10-31T16:20:01.309Z,89.2524
2023-10-31T16:25:14.076Z,88.42116
2023-10-31T16:30:26.164Z,88.7034
2023-10-31T16:35:38.388Z,89.41288
2023-10-31T16:40:50.385Z,91.4804
2023-10-31T16:46:02.507Z,92.33967
2023-10-31T16:51:14.612Z,92.85001
2023-10-31T16:56:26.597Z,93.45792
2023-10-31T17:01:38.604Z,94.08592
2023-10-31T17:06:50.836Z,95.5134
2023-10-31T17:12:03.739Z,94.98936
2023-10-31T17:17:16.944Z,96.46422
2023-10-31T17:27:41.419Z,97.41987
2023-10-31T17:32:53.514Z,98.0527
2023-10-31T17:38:06.152Z,98.59677
2023-10-31T17:43:18.838Z,98.82202
2023-10-31T17:48:31.619Z,99.21792
2023-10-31T17:53:43.818Z,99.79573
2023-10-31T17:58:56.064Z,100.3137
2023-10-31T18:04:08.149Z,100.4321
2023-10-31T18:09:20.174Z,101.267
2023-10-31T18:14:32.156Z,102.7961
2023-10-31T18:19:44.271Z,103.8939
2023-10-31T18:24:56.234Z,104.6195
2023-10-31T18:30:14.595Z,106.1707
2023-10-31T18:35:26.626Z,106.5466
2023-10-31T18:40:38.652Z,107.0096
2023-10-31T18:45:50.793Z,107.0558
2023-10-31T18:51:03.316Z,107.459
2023-10-31T18:56:15.322Z,107.6376
2023-10-31T19:01:27.646Z,107.5891
2023-10-31T19:06:40.057Z,107.4899
2023-10-31T19:11:52.051Z,107.3465
2023-10-31T19:17:04.027Z,107.3269
2023-10-31T19:22:16.005Z,106.9835
2023-10-31T19:27:28.031Z,107.1394
2023-10-31T19:32:55.069Z,106.8848
2023-10-31T19:38:07.238Z,107.0073
2023-10-31T19:43:19.204Z,107.0454
2023-10-31T19:48:33.809Z,107.1036
2023-10-31T19:53:45.833Z,106.9968
2023-10-31T20:04:17.988Z,105.7304
2023-10-31T20:09:30.009Z,105.2192
2023-10-31T20:14:59.569Z,104.8088
2023-10-31T20:20:14.154Z,104.1968
2023-10-31T20:25:26.335Z,103.7953
2023-10-31T20:30:38.326Z,102.8336
2023-10-31T20:35:50.652Z,101.9309
2023-10-31T20:41:02.704Z,101.3486
2023-10-31T20:46:14.679Z,101.3249
2023-10-31T20:51:26.713Z,101.3056
2023-10-31T20:56:38.843Z,102.1227
2023-10-31T21:01:51.128Z,102.5495
2023-10-31T21:07:03.157Z,102.6282
2023-10-31T21:12:15.367Z,102.7683
2023-10-31T21:17:28.400Z,102.9968
2023-10-31T21:22:41.544Z,103.0024
2023-10-31T21:27:53.766Z,103.153
2023-10-31T21:33:05.888Z,103.0333
2023-10-31T21:38:17.898Z,102.2085
2023-10-31T21:43:29.983Z,102.6381
2023-10-31T21:48:41.973Z,102.4024
2023-10-31T21:53:53.920Z,102.3727
2023-10-31T21:59:06.013Z,102.1947
2023-10-31T22:04:18.084Z,102.7605
2023-10-31T22:09:30.181Z,103.1171
2023-10-31T22:14:42.262Z,103.7302
2023-10-31T22:19:54.240Z,104.0824
2023-10-31T22:25:06.218Z,104.3217
2023-10-31T22:30:18.316Z,104.4293
2023-10-31T22:35:30.422Z,104.5188
2023-10-31T22:40:42.621Z,104.5662
2023-10-31T22:45:55.234Z,104.6686
2023-10-31T22:51:07.228Z,105.0641
2023-10-31T22:56:19.199Z,105.2994
2023-10-31T23:01:31.495Z,105.3244
2023-10-31T23:06:43.624Z,105.6753
2023-10-31T23:11:55.727Z,105.8905
2023-10-31T23:17:07.706Z,105.8817
2023-10-31T23:22:19.697Z,105.8926
2023-10-31T23:27:31.794Z,105.8347
2023-10-31T23:32:43.959Z,105.844
2023-10-31T23:37:56.105Z,105.5464
2023-10-31T23:43:08.213Z,105.432
2023-10-31T23:48:20.252Z,105.3742
2023-10-31T23:53:32.261Z,105.3039
2023-10-31T23:58:44.351Z,105.2935
